weather.gov     
National Weather Service

Terminal Aerodrome Forecast
NWS Homepage
This page is being discontinued on March 12, 2014.
The same data is available at this site. Please update your bookmarks.
Thank you, and we apologize for the inconvenience.
Please send an email to SR-SRH.Webmaster@noaa.gov with any concerns.


Current Version
Previous Version:    01  02  03  04  05  06  07  08  09  10  11  12  13  14  15  16  17  18  19  20  21  22  23  24  25  
[Printable]
049
FTUS45 KGJT 162330
TAFDRO
TAF
KDRO 162330Z 1700/1724 33009KT P6SM VCSH FEW110 BKN200
     FM170200 01005KT P6SM FEW110 BKN200
     FM170700 05003KT P6SM SCT200
     FM171500 09005KT P6SM SCT200
     FM172000 02008KT P6SM VCTS FEW110CB SCT200=


049
FTUS45 KGJT 162330
TAFDRO
TAF
KDRO 162330Z 1700/1724 33009KT P6SM VCSH FEW110 BKN200
     FM170200 01005KT P6SM FEW110 BKN200
     FM170700 05003KT P6SM SCT200
     FM171500 09005KT P6SM SCT200
     FM172000 02008KT P6SM VCTS FEW110CB SCT200=




U.S. Dept. of Commerce
NOAA National Weather Service
1325 East West Highway
Silver Spring, MD 20910
E-mail: w-nws.webmaster@noaa.gov
Page last modified: May 16, 2007
NATIONAL WEATHER SERVICE: for Safety, for Work, for Fun - FOR LIFE